createdAt,value
2022-12-29T17:15:32.947Z,8.61
2022-12-29T17:16:34.986Z,7.49
2022-12-29T17:17:36.814Z,7.80
2022-12-29T17:18:38.590Z,6.96
2022-12-29T17:19:40.383Z,8.15
2022-12-29T17:20:42.163Z,8.90
2022-12-29T17:21:43.971Z,8.57
2022-12-29T17:22:45.791Z,8.57
2022-12-29T17:23:47.631Z,8.20
2022-12-29T17:24:49.433Z,8.63
2022-12-29T17:25:51.220Z,10.70
2022-12-29T17:26:52.989Z,10.92
2022-12-29T17:27:54.825Z,10.36
2022-12-29T17:28:56.607Z,8.47
2022-12-29T17:29:58.461Z,8.51
2022-12-29T17:31:00.328Z,9.84
2022-12-29T17:32:02.111Z,8.99
2022-12-29T17:33:03.954Z,11.30
2022-12-29T17:34:05.706Z,9.71
2022-12-29T17:35:07.496Z,7.97
2022-12-29T17:36:10.309Z,8.47
2022-12-29T17:37:12.104Z,9.31
2022-12-29T17:38:13.978Z,11.41
2022-12-29T17:39:15.790Z,10.06
2022-12-29T17:40:17.595Z,10.18
2022-12-29T17:41:19.416Z,12.77
2022-12-29T17:42:21.241Z,11.03
2022-12-29T17:43:23.185Z,10.01
2022-12-29T17:44:25.018Z,8.37
2022-12-29T17:45:26.832Z,9.69
2022-12-29T17:46:28.703Z,9.75
2022-12-29T17:47:30.543Z,9.60
2022-12-29T17:48:32.381Z,9.08
2022-12-29T17:49:34.158Z,10.85
2022-12-29T17:50:36.226Z,8.87
2022-12-29T17:51:38.038Z,8.63
2022-12-29T17:52:39.887Z,8.07
2022-12-29T17:53:41.790Z,9.70
2022-12-29T17:54:43.614Z,8.27
2022-12-29T17:55:45.386Z,8.44
2022-12-29T17:56:47.479Z,7.67
2022-12-29T17:57:49.288Z,11.02
2022-12-29T17:58:51.347Z,9.17
2022-12-29T17:59:53.138Z,9.21
2022-12-29T18:00:54.940Z,8.31
2022-12-29T18:01:56.893Z,7.70
2022-12-29T18:02:59.015Z,7.91
2022-12-29T18:04:01.023Z,7.90
2022-12-29T18:05:02.772Z,11.74
2022-12-29T18:06:04.886Z,12.81
2022-12-29T18:07:06.694Z,11.70
2022-12-29T18:08:08.520Z,9.31
2022-12-29T18:09:10.472Z,9.47
2022-12-29T18:10:12.371Z,7.96
2022-12-29T18:11:14.179Z,9.13
2022-12-29T18:12:15.967Z,8.93
2022-12-29T18:13:17.756Z,6.46
2022-12-29T18:14:19.591Z,8.76
2022-12-29T18:15:21.387Z,8.59
2022-12-29T18:16:23.259Z,7.49
2022-12-29T18:17:25.278Z,7.32
2022-12-29T18:18:27.161Z,9.57
2022-12-29T18:19:34.069Z,7.59
2022-12-29T18:20:32.676Z,9.36
2022-12-29T18:21:34.479Z,10.09
2022-12-29T18:22:36.261Z,9.02
2022-12-29T18:23:38.063Z,7.89
2022-12-29T18:24:39.917Z,7.13
2022-12-29T18:25:41.736Z,6.96
2022-12-29T18:26:43.610Z,5.47
2022-12-29T18:27:45.397Z,8.94
2022-12-29T18:28:47.195Z,5.85
2022-12-29T18:29:49.072Z,8.01
2022-12-29T18:30:51.124Z,8.37
2022-12-29T18:31:53.049Z,10.17
2022-12-29T18:32:54.902Z,7.53
2022-12-29T18:33:56.711Z,7.91
2022-12-29T18:34:58.621Z,7.79
2022-12-29T18:36:00.414Z,6.66
2022-12-29T18:37:02.214Z,7.53
2022-12-29T18:38:04.043Z,7.35
2022-12-29T18:39:05.810Z,9.14
2022-12-29T18:40:07.993Z,10.00
2022-12-29T18:41:09.790Z,9.96
2022-12-29T18:42:11.598Z,8.61
2022-12-29T18:43:13.420Z,11.09
2022-12-29T18:44:15.224Z,8.99
2022-12-29T18:45:17.115Z,10.00
2022-12-29T18:46:23.074Z,10.05
2022-12-29T18:47:22.854Z,11.26
2022-12-29T18:48:24.661Z,9.95
2022-12-29T18:49:26.503Z,8.73
2022-12-29T18:50:28.538Z,9.04
2022-12-29T18:51:30.313Z,8.72
2022-12-29T18:52:32.169Z,8.89
2022-12-29T18:53:33.986Z,7.54
2022-12-29T18:54:35.772Z,9.44
2022-12-29T18:55:37.596Z,9.19
2022-12-29T18:56:39.519Z,8.81
2022-12-29T18:57:41.304Z,8.59
2022-12-29T18:58:43.098Z,8.54
2022-12-29T18:59:44.938Z,10.57
2022-12-29T19:00:46.859Z,11.95
2022-12-29T19:01:48.835Z,11.47
2022-12-29T19:02:50.764Z,8.69
2022-12-29T19:03:52.620Z,10.33
2022-12-29T19:05:00.883Z,7.93
2022-12-29T19:05:58.160Z,10.01
2022-12-29T19:07:00.242Z,8.04
2022-12-29T19:08:02.055Z,8.65
2022-12-29T19:09:03.846Z,7.07
2022-12-29T19:10:05.727Z,11.70
2022-12-29T19:11:07.557Z,13.87
2022-12-29T19:12:09.370Z,11.70
2022-12-29T19:13:11.165Z,8.41
2022-12-29T19:14:12.959Z,8.53
2022-12-29T19:15:14.762Z,8.49
2022-12-29T19:16:16.611Z,10.40
2022-12-29T19:17:18.368Z,9.31
2022-12-29T19:19:23.813Z,9.64
2022-12-29T19:20:25.732Z,7.17
2022-12-29T19:21:27.591Z,8.55
2022-12-29T19:22:29.389Z,6.50
2022-12-29T19:23:31.191Z,8.14
2022-12-29T19:24:32.980Z,7.17
2022-12-29T19:25:34.773Z,7.03
2022-12-29T19:26:37.170Z,8.71
2022-12-29T19:27:39.188Z,6.96
2022-12-29T19:28:40.996Z,7.94
2022-12-29T19:29:42.801Z,7.79
2022-12-29T19:30:49.588Z,9.96
2022-12-29T19:31:48.294Z,8.00
2022-12-29T19:32:50.106Z,7.23
2022-12-29T19:33:51.945Z,7.16
2022-12-29T19:34:53.819Z,6.69
2022-12-29T19:35:55.719Z,9.57
2022-12-29T19:36:57.694Z,9.81
2022-12-29T19:37:59.513Z,7.99
2022-12-29T19:39:01.300Z,7.12
2022-12-29T19:40:03.092Z,7.29
2022-12-29T19:41:04.891Z,6.63
2022-12-29T19:42:06.719Z,6.53
2022-12-29T19:43:08.518Z,7.75
2022-12-29T19:44:10.370Z,8.38
2022-12-29T19:45:12.156Z,9.38
2022-12-29T19:46:14.549Z,8.60
2022-12-29T19:47:19.619Z,6.93
2022-12-29T19:48:20.038Z,7.71
2022-12-29T19:49:21.830Z,9.93
2022-12-29T19:50:23.821Z,7.20
2022-12-29T19:51:25.676Z,8.94
2022-12-29T19:52:27.533Z,8.17
2022-12-29T19:53:29.339Z,11.22
2022-12-29T19:54:31.159Z,10.67
2022-12-29T19:55:32.994Z,10.39
2022-12-29T19:56:34.937Z,10.25
2022-12-29T19:57:36.799Z,10.90
2022-12-29T19:58:42.611Z,13.45
2022-12-29T19:59:42.274Z,11.94
2022-12-29T20:00:44.550Z,12.75
2022-12-29T20:01:46.665Z,11.68
2022-12-29T20:02:48.694Z,9.60
2022-12-29T20:03:50.599Z,11.57
2022-12-29T20:04:52.454Z,11.04
2022-12-29T20:05:54.247Z,10.79
2022-12-29T20:06:56.694Z,10.55
2022-12-29T20:07:58.551Z,9.49
2022-12-29T20:09:00.366Z,10.45
2022-12-29T20:10:02.216Z,9.33
2022-12-29T20:11:04.034Z,10.04
2022-12-29T20:12:05.838Z,9.09
2022-12-29T20:13:07.722Z,9.45
2022-12-29T20:14:09.513Z,9.46
2022-12-29T20:15:11.345Z,6.75
2022-12-29T20:16:13.337Z,8.99
2022-12-29T20:17:15.346Z,7.18
2022-12-29T20:18:17.326Z,5.87
2022-12-29T20:19:19.281Z,7.70
2022-12-29T20:20:21.297Z,7.06
2022-12-29T20:21:23.513Z,7.69
2022-12-29T20:22:25.339Z,6.60
2022-12-29T20:23:27.194Z,5.90
2022-12-29T20:24:28.998Z,7.04
2022-12-29T20:25:53.694Z,5.87
2022-12-29T20:26:34.515Z,6.86
2022-12-29T20:27:36.315Z,6.89
2022-12-29T20:28:38.233Z,6.83
2022-12-29T20:29:40.063Z,5.78
2022-12-29T20:30:42.978Z,6.66
2022-12-29T20:31:44.869Z,5.53
2022-12-29T20:32:46.849Z,7.29
2022-12-29T20:33:49.883Z,7.76
2022-12-29T20:34:51.744Z,6.23
2022-12-29T20:35:53.577Z,6.29
2022-12-29T20:36:55.646Z,6.54
2022-12-29T20:37:57.811Z,4.53
2022-12-29T20:38:59.783Z,7.89
2022-12-29T20:40:01.703Z,6.77
2022-12-29T20:41:03.537Z,6.65
2022-12-29T20:42:05.360Z,7.72
2022-12-29T20:43:07.166Z,5.29
2022-12-29T20:44:09.110Z,8.66
2022-12-29T20:45:11.253Z,6.09
2022-12-29T20:46:13.221Z,8.19
2022-12-29T20:47:15.195Z,7.82
2022-12-29T20:48:17.037Z,8.83
2022-12-29T20:49:19.091Z,10.24
2022-12-29T20:50:20.898Z,14.21
2022-12-29T20:51:22.719Z,12.46
2022-12-29T20:52:24.535Z,8.96
2022-12-29T20:53:26.378Z,6.74
2022-12-29T20:54:28.224Z,6.13
2022-12-29T20:55:30.053Z,9.23
2022-12-29T20:56:31.969Z,6.15
2022-12-29T20:57:57.164Z,6.86
2022-12-29T20:58:52.558Z,6.82
2022-12-29T20:59:41.228Z,6.96
2022-12-29T21:00:43.048Z,7.16
2022-12-29T21:01:45.002Z,6.47
2022-12-29T21:02:46.988Z,7.03
2022-12-29T21:03:48.967Z,7.67
2022-12-29T21:05:22.616Z,7.11
2022-12-29T21:05:54.488Z,6.29
2022-12-29T21:06:56.326Z,8.05
2022-12-29T21:07:58.127Z,6.09
2022-12-29T21:08:59.991Z,8.83
2022-12-29T21:10:01.840Z,7.21
2022-12-29T21:11:03.666Z,8.26
2022-12-29T21:12:05.482Z,7.12
2022-12-29T21:13:07.345Z,6.44
2022-12-29T21:14:09.168Z,5.94
2022-12-29T21:15:11.068Z,7.21
2022-12-29T21:16:14.760Z,7.06
2022-12-29T21:17:16.623Z,8.81
2022-12-29T21:18:18.470Z,6.95
2022-12-29T21:19:20.312Z,5.83
2022-12-29T21:20:22.293Z,6.01
2022-12-29T21:21:24.240Z,6.55
2022-12-29T21:22:26.070Z,6.22
2022-12-29T21:23:27.897Z,6.61
2022-12-29T21:24:29.755Z,6.35
2022-12-29T21:26:49.531Z,6.11
2022-12-29T21:27:56.170Z,7.30
2022-12-29T21:28:57.993Z,6.80
2022-12-29T21:29:59.826Z,8.00
2022-12-29T21:31:01.676Z,6.34
2022-12-29T21:32:06.678Z,7.07
2022-12-29T21:33:07.195Z,7.52
2022-12-29T21:34:09.032Z,8.36
2022-12-29T21:35:10.870Z,7.99
2022-12-29T21:36:13.164Z,6.51
2022-12-29T21:37:19.967Z,5.33
2022-12-29T21:38:18.691Z,6.81
2022-12-29T21:39:20.507Z,5.61
2022-12-29T21:40:22.452Z,5.07
2022-12-29T21:41:24.274Z,7.51
2022-12-29T21:42:26.125Z,7.17
2022-12-29T21:43:27.938Z,6.54
2022-12-29T21:44:29.744Z,7.47
2022-12-29T21:45:31.559Z,6.48
2022-12-29T21:46:33.766Z,7.59
2022-12-29T21:47:35.756Z,7.35
2022-12-29T21:48:37.574Z,6.47
2022-12-29T21:49:39.441Z,6.26
2022-12-29T21:50:41.691Z,7.34
2022-12-29T21:51:43.509Z,7.07
2022-12-29T21:52:45.520Z,5.33
2022-12-29T21:53:47.348Z,6.12
2022-12-29T21:54:49.171Z,7.38
2022-12-29T21:55:51.007Z,7.36
2022-12-29T21:56:52.826Z,6.26
2022-12-29T21:57:54.671Z,6.20
2022-12-29T21:58:56.496Z,5.89
2022-12-29T21:59:58.309Z,7.03
2022-12-29T22:01:00.197Z,7.65
2022-12-29T22:02:02.181Z,7.51
2022-12-29T22:03:04.218Z,6.65
2022-12-29T22:04:06.241Z,6.85
2022-12-29T22:05:07.989Z,6.74
2022-12-29T22:06:09.998Z,5.73
2022-12-29T22:07:11.804Z,6.62
2022-12-29T22:08:13.628Z,7.99
2022-12-29T22:09:15.432Z,5.13
2022-12-29T22:10:17.517Z,5.39
2022-12-29T22:11:19.364Z,6.15
2022-12-29T22:12:21.164Z,5.73
2022-12-29T22:13:23.000Z,6.48
2022-12-29T22:14:24.793Z,7.57
2022-12-29T22:15:26.616Z,6.37
2022-12-29T22:16:29.023Z,6.92
2022-12-29T22:17:35.181Z,7.00
2022-12-29T22:18:34.613Z,6.54
2022-12-29T22:19:36.396Z,4.93
2022-12-29T22:20:38.198Z,4.75
2022-12-29T22:21:39.997Z,6.38
2022-12-29T22:22:41.776Z,6.78
2022-12-29T22:23:43.603Z,6.98
2022-12-29T22:24:45.401Z,6.59
2022-12-29T22:25:47.186Z,7.43
2022-12-29T22:26:49.536Z,6.85
2022-12-29T22:27:58.896Z,6.37
2022-12-29T22:28:57.276Z,6.14
2022-12-29T22:29:59.078Z,7.21
2022-12-29T22:31:00.919Z,7.61
2022-12-29T22:32:02.654Z,5.11
2022-12-29T22:33:05.058Z,5.48
2022-12-29T22:34:06.884Z,7.50
2022-12-29T22:35:08.750Z,5.68
2022-12-29T22:36:10.671Z,8.13
2022-12-29T22:37:12.466Z,5.55
2022-12-29T22:38:14.257Z,6.22
2022-12-29T22:39:16.113Z,5.15
2022-12-29T22:40:17.921Z,6.76
2022-12-29T22:41:19.691Z,7.28
2022-12-29T22:42:21.707Z,5.24
2022-12-29T22:43:23.498Z,6.62
2022-12-29T22:44:25.589Z,5.36
2022-12-29T22:45:27.389Z,5.51
2022-12-29T22:46:29.652Z,6.59
2022-12-29T22:47:31.482Z,6.16
2022-12-29T22:48:33.307Z,6.32
2022-12-29T22:49:35.120Z,4.33
2022-12-29T22:50:37.011Z,4.61
2022-12-29T22:51:39.001Z,6.79
2022-12-29T22:52:40.802Z,5.33
2022-12-29T22:53:42.610Z,5.41
2022-12-29T22:54:44.448Z,5.31
2022-12-29T22:55:46.262Z,7.08
2022-12-29T22:56:48.036Z,5.53
2022-12-29T22:57:49.853Z,6.08
2022-12-29T22:58:51.646Z,6.04
2022-12-29T22:59:53.493Z,5.29
2022-12-29T23:00:55.269Z,5.52
2022-12-29T23:01:57.205Z,5.68
2022-12-29T23:02:59.231Z,5.83
2022-12-29T23:04:44.347Z,5.77
2022-12-29T23:05:05.688Z,5.72
2022-12-29T23:06:08.420Z,5.44
2022-12-29T23:07:10.213Z,5.59
2022-12-29T23:08:12.004Z,5.79
2022-12-29T23:09:13.796Z,6.08
2022-12-29T23:10:17.460Z,5.71
2022-12-29T23:11:19.240Z,7.81
2022-12-29T23:12:21.032Z,4.98
2022-12-29T23:13:23.027Z,6.22
2022-12-29T23:14:24.809Z,5.09
2022-12-29T23:15:26.782Z,5.08
2022-12-29T23:16:28.683Z,7.22
2022-12-29T23:17:30.540Z,5.15
2022-12-29T23:18:32.346Z,6.95
2022-12-29T23:19:34.134Z,6.53
2022-12-29T23:20:36.174Z,5.16
2022-12-29T23:21:37.962Z,5.50
2022-12-29T23:22:39.762Z,4.85
2022-12-29T23:23:48.427Z,5.23
2022-12-29T23:24:45.181Z,6.94
2022-12-29T23:25:47.007Z,5.26
2022-12-29T23:26:48.793Z,5.94
2022-12-29T23:27:50.576Z,7.55
2022-12-29T23:28:56.297Z,5.29
2022-12-29T23:29:56.002Z,7.44
2022-12-29T23:30:58.000Z,5.55
2022-12-29T23:31:59.847Z,6.34
2022-12-29T23:33:01.645Z,4.41
2022-12-29T23:34:03.434Z,5.57
2022-12-29T23:35:05.227Z,6.20
2022-12-29T23:36:07.565Z,6.20
2022-12-29T23:37:09.356Z,6.50
2022-12-29T23:38:11.187Z,5.71
2022-12-29T23:39:12.978Z,5.57
2022-12-29T23:40:14.784Z,6.12
2022-12-29T23:41:16.612Z,5.80
2022-12-29T23:42:18.406Z,5.86
2022-12-29T23:43:20.207Z,7.19
2022-12-29T23:44:22.008Z,5.93
2022-12-29T23:45:23.821Z,5.45
2022-12-29T23:46:25.727Z,5.59
2022-12-29T23:47:27.529Z,4.93
2022-12-29T23:48:29.332Z,5.48
2022-12-29T23:49:31.128Z,4.91
2022-12-29T23:50:33.123Z,6.59
2022-12-29T23:51:34.960Z,7.87
2022-12-29T23:52:36.765Z,6.08
2022-12-29T23:53:38.550Z,5.42
2022-12-29T23:54:40.347Z,5.51
2022-12-29T23:55:42.129Z,4.95
2022-12-29T23:56:44.167Z,5.91
2022-12-29T23:57:45.948Z,5.99
2022-12-29T23:58:47.728Z,7.39
2022-12-29T23:59:49.681Z,5.66
